Flight Track Log - Related Links

Times and Time Zones

All times are in EDT time to prevent confusion due to time zone crossing. See the N508QS flight status page for this flight to view local times or setup timezone preferences in your user account.

Time Position Orientation Groundspeed Altitude Reporting Facility
EDT Latitude Longitude Course Direction KTS MPH feet Rate Location/Type
Mon 02:18:42 PM 40.9406 -74.0728 259° West 247 284 4,900  Level New York Center
Mon 02:19:40 PM 40.9672 -74.1594 292° West 257 296 6,000 1,576 Climbing New York Center
Mon 02:20:40 PM 40.9583 -74.2497 263° West 237 273 8,000 2,231 Climbing New York Center
Mon 02:21:41 PM 40.9408 -74.3422 256° West 270 311 10,500 2,244 Climbing New York Center
Mon 02:22:51 PM 40.9167 -74.4667 256° West 311 358 12,900 1,780 Climbing New York TRACON
Mon 02:23:00 PM 40.8000 -74.9868 270° West  Level FlightAware Approximate
Mon 02:23:39 PM 40.9028 -74.5653 259° West 340 391 14,000  Level New York Center
Mon 02:24:00 PM 40.7984 -75.1445 259° West  Level FlightAware Approximate
Mon 02:24:40 PM 40.8819 -74.6903 258° West 351 404 15,800  Level New York Center
Mon 02:25:41 PM 40.8592 -74.8125 256° West 356 410 17,000 1,869 Climbing New York Center
Mon 02:26:42 PM 40.8317 -74.9397 254° West 362 417 19,600 2,492 Climbing New York Center
Mon 02:27:39 PM 40.7939 -75.0661 248° West 367 422 21,900 2,350 Climbing New York Center
Mon 02:28:42 PM 40.7514 -75.2033 248° West 388 447 24,300 2,281 Climbing New York Center
Mon 02:29:40 PM 40.7086 -75.3400 248° West 403 464 26,500 2,118 Climbing New York Center
Mon 02:30:41 PM 40.6675 -75.4825 249° West 413 475 28,500 1,983 Climbing New York Center
Mon 02:31:41 PM 40.6222 -75.6242 247° West 418 481 30,500 2,650 Climbing New York Center
Mon 02:32:41 PM 40.5789 -75.7661 248° West 428 493 33,800 3,782 Climbing New York Center
Mon 02:33:40 PM 40.5400 -75.8917 248° West 408 470 38,000 2,874 Climbing New York Center
Mon 02:34:40 PM 40.5025 -75.9897 243° Southwest 366 421 39,500 1,200 Climbing New York Center
Mon 02:35:40 PM 40.4664 -76.0989 247° West 346 398 40,400 793 Climbing New York Center
Mon 02:36:41 PM 40.4297 -76.2186 248° West 341 392 41,100 706 Climbing New York Center
Mon 02:37:39 PM 40.3928 -76.3386 248° West 352 405 41,800 706 Climbing New York Center
Mon 02:38:40 PM 40.3494 -76.4603 245° Southwest 357 411 42,500 590 Climbing New York Center
Mon 02:39:41 PM 40.3328 -76.5897 260° West 367 422 43,000 246 Climbing New York Center
Mon 02:40:42 PM 40.3358 -76.7342 272° West 378 435 43,000  Level New York Center
Mon 02:41:40 PM 40.3431 -76.8819 274° West 396 456 43,000  Level New York Center
Mon 02:42:40 PM 40.3472 -77.0403 272° West 421 484 43,000  Level New York Center
Mon 02:43:41 PM 40.3492 -77.1958 271° West 431 496 43,000  Level New York Center
Mon 02:45:21 PM 40.3556 -77.4550 272° West 423 487 43,000  Level Cleveland Center
Mon 02:46:21 PM 40.3578 -77.6131 271° West 423 487 43,000  Level Cleveland Center
Mon 02:47:21 PM 40.3597 -77.7711 271° West 428 493 43,000  Level Cleveland Center
Mon 02:48:21 PM 40.3636 -77.9289 272° West 433 498 43,000  Level Cleveland Center
Mon 02:49:21 PM 40.3650 -78.0897 271° West 439 505 43,000  Level Cleveland Center
Mon 02:50:21 PM 40.3664 -78.2478 271° West 439 505 43,000  Level Cleveland Center
Mon 02:51:21 PM 40.3694 -78.4083 271° West 439 505 43,000  Level Cleveland Center
Mon 02:52:21 PM 40.3725 -78.5664 272° West 439 505 43,000  Level Cleveland Center
Mon 02:53:21 PM 40.3708 -78.7217 269° West 439 505 43,000  Level Cleveland Center
Mon 02:54:21 PM 40.3733 -78.8825 271° West 439 505 43,000  Level Cleveland Center
Mon 02:55:21 PM 40.3736 -79.0378 270° West 439 505 43,000  Level Cleveland Center
Mon 02:56:21 PM 40.3756 -79.1958 271° West 439 505 43,000  Level Cleveland Center
Mon 02:57:21 PM 40.3775 -79.3647 271° West 439 505 43,000  Level Cleveland Center
Mon 02:58:21 PM 40.3792 -79.5256 271° West 439 505 43,000  Level Cleveland Center
Mon 02:59:21 PM 40.3783 -79.6836 270° West 439 505 43,000  Level Cleveland Center
Mon 03:00:21 PM 40.3794 -79.8417 271° West 439 505 43,000  Level Cleveland Center
Mon 03:01:21 PM 40.3783 -80.0053 270° West 439 505 43,000  Level Cleveland Center
Mon 03:02:21 PM 40.3769 -80.1525 269° West 456 525 43,000  Level Cleveland Center
Mon 03:03:21 PM 40.3753 -80.3133 269° West 456 525 43,000  Level Cleveland Center
Mon 03:04:21 PM 40.3778 -80.4714 271° West 456 525 43,000  Level Cleveland Center
Mon 03:06:17 PM 40.3722 -80.7750 269° West 442 509 43,000  Level Indianapolis Center
Mon 03:07:19 PM 40.3706 -80.9639 269° West 442 509 43,000  Level Indianapolis Center
Mon 03:08:21 PM 40.3717 -81.1272 271° West 442 509 43,000  Level Indianapolis Center
Mon 03:09:23 PM 40.3758 -81.2908 272° West 445 512 43,000  Level Indianapolis Center
Mon 03:10:25 PM 40.3794 -81.4536 272° West 442 509 43,000  Level Indianapolis Center
Mon 03:11:27 PM 40.3833 -81.6161 272° West 442 509 43,000  Level Indianapolis Center
Mon 03:12:29 PM 40.3864 -81.7792 271° West 442 509 43,000  Level Indianapolis Center
Mon 03:13:31 PM 40.3897 -81.9442 272° West 447 514 43,000  Level Indianapolis Center
Mon 03:14:33 PM 40.3931 -82.1069 272° West 443 510 43,000  Level Indianapolis Center
Mon 03:15:35 PM 40.3958 -82.2972 271° West 444 511 43,000  Level Indianapolis Center
Mon 03:16:37 PM 40.3981 -82.4611 271° West 446 513 43,000  Level Indianapolis Center
Mon 03:17:39 PM 40.4003 -82.6244 271° West 443 510 43,000  Level Indianapolis Center
Mon 03:18:41 PM 40.4025 -82.7886 271° West 445 512 43,000  Level Indianapolis Center
Mon 03:19:43 PM 40.4036 -82.9542 271° West 438 504 43,000  Level Indianapolis Center
Mon 03:20:45 PM 40.4056 -83.1147 271° West 439 505 43,000  Level Indianapolis Center
Mon 03:21:47 PM 40.4058 -83.2744 270° West 437 503 43,000  Level Indianapolis Center
Mon 03:22:49 PM 40.4075 -83.4361 271° West 441 507 43,000  Level Indianapolis Center
Mon 03:23:51 PM 40.4075 -83.5983 270° West 444 511 43,000  Level Indianapolis Center
Mon 03:24:53 PM 40.4083 -83.7869 270° West 443 510 43,000  Level Indianapolis Center
Mon 03:25:55 PM 40.4078 -83.9492 270° West 443 510 43,000  Level Indianapolis Center
Mon 03:26:57 PM 40.4081 -84.1125 270° West 445 512 43,000  Level Indianapolis Center
Mon 03:27:59 PM 40.4081 -84.2758 270° West 446 513 43,000  Level Indianapolis Center
Mon 03:29:01 PM 40.4078 -84.4394 270° West 446 513 43,000  Level Indianapolis Center
Mon 03:30:03 PM 40.4064 -84.6019 269° West 444 511 43,000  Level Indianapolis Center
Mon 03:31:05 PM 40.4056 -84.7931 270° West 445 512 43,000  Level Indianapolis Center
Mon 03:32:08 PM 40.4036 -84.9436 269° West 448 516 43,000  Level Indianapolis Center
Mon 03:33:10 PM 40.4017 -85.1028 269° West 440 506 43,000  Level Indianapolis Center
Mon 03:33:33 PM 40.4019 -85.1664 270° West 444 511 43,000  Level Chicago Center
Mon 03:34:35 PM 40.4003 -85.3269 269° West 444 511 43,000  Level Chicago Center
Mon 03:35:37 PM 40.3978 -85.5200 269° West 444 511 43,000  Level Chicago Center
Mon 03:36:39 PM 40.3953 -85.6814 269° West 445 512 43,000  Level Chicago Center
Mon 03:37:42 PM 40.3933 -85.8444 269° West 449 517 43,000  Level Chicago Center
Mon 03:38:44 PM 40.3906 -86.0072 269° West 451 519 43,000  Level Chicago Center
Mon 03:39:46 PM 40.3875 -86.1711 269° West 453 521 43,000  Level Chicago Center
Mon 03:40:48 PM 40.3842 -86.3669 269° West 452 520 43,000  Level Chicago Center
Mon 03:41:50 PM 40.3806 -86.5292 268° West 450 518 43,000  Level Chicago Center
Mon 03:42:52 PM 40.3764 -86.6911 268° West 448 516 43,000  Level Chicago Center
Mon 03:43:54 PM 40.3728 -86.8536 268° West 449 517 43,000  Level Chicago Center
Mon 03:44:56 PM 40.3689 -87.0142 268° West 446 513 43,000  Level Chicago Center
Mon 03:45:58 PM 40.3636 -87.2072 268° West 445 512 43,000  Level Chicago Center
Mon 03:47:00 PM 40.3592 -87.3689 268° West 446 513 43,000  Level Chicago Center
Mon 03:48:02 PM 40.3536 -87.5236 267° West 446 513 43,000  Level Chicago Center
Mon 03:49:04 PM 40.3481 -87.7169 268° West 444 511 43,000  Level Chicago Center
Mon 03:50:07 PM 40.3422 -87.8806 267° West 447 514 43,000  Level Chicago Center
Mon 03:51:09 PM 40.3375 -88.0414 268° West 445 512 43,000  Level Chicago Center
Mon 03:52:11 PM 40.3325 -88.2031 268° West 445 512 43,000  Level Chicago Center
Mon 03:53:13 PM 40.3261 -88.3639 267° West 443 510 43,000  Level Chicago Center
Mon 03:54:15 PM 40.3192 -88.5239 267° West 440 506 43,000  Level Chicago Center
Mon 03:55:17 PM 40.3128 -88.6847 267° West 441 507 43,000  Level Chicago Center
Mon 03:56:19 PM 40.3053 -88.8789 267° West 442 509 43,000  Level Chicago Center
Mon 03:57:21 PM 40.2981 -89.0397 267° West 443 510 43,000  Level Chicago Center
Mon 03:58:23 PM 40.2908 -89.2028 267° West 444 511 43,000  Level Chicago Center
Mon 03:59:25 PM 40.2822 -89.3656 266° West 443 510 43,000  Level Chicago Center
Mon 04:00:31 PM 40.2744 -89.5275 266° West 445 512 43,000  Level Kansas City Center
Mon 04:01:33 PM 40.2653 -89.7244 267° West 448 516 43,000  Level Kansas City Center
Mon 04:02:35 PM 40.2564 -89.8864 266° West 445 512 43,000  Level Kansas City Center
Mon 04:03:34 PM 40.2486 -90.0472 266° West 443 510 43,000  Level Chicago Center
Mon 04:04:39 PM 40.2400 -90.2106 266° West 444 511 43,000  Level Kansas City Center
Mon 04:05:41 PM 40.2314 -90.3708 266° West 443 510 43,000  Level Kansas City Center
Mon 04:06:43 PM 40.2231 -90.5314 266° West 441 507 43,000  Level Kansas City Center
Mon 04:07:45 PM 40.2131 -90.6906 265° West 439 505 43,000  Level Kansas City Center
Mon 04:08:47 PM 40.2033 -90.8514 266° West 442 509 43,000  Level Kansas City Center
Mon 04:09:49 PM 40.1917 -91.0267 265° West 442 509 43,000  Level Kansas City Center
Mon 04:10:51 PM 40.1814 -91.1858 265° West 443 510 43,000  Level Kansas City Center
Mon 04:11:53 PM 40.1708 -91.3789 266° West 447 514 43,000  Level Kansas City Center
Mon 04:12:55 PM 40.1608 -91.5389 265° West 446 513 43,000  Level Kansas City Center
Mon 04:13:57 PM 40.1503 -91.6994 265° West 446 513 43,000  Level Kansas City Center
Mon 04:14:59 PM 40.1389 -91.8603 265° West 447 514 43,000  Level Kansas City Center
Mon 04:16:01 PM 40.1275 -92.0214 265° West 448 516 43,000  Level Kansas City Center
Mon 04:17:03 PM 40.1161 -92.1833 265° West 449 517 43,000  Level Kansas City Center
Mon 04:18:05 PM 40.1033 -92.3714 265° West 451 519 43,000  Level Kansas City Center
Mon 04:19:07 PM 40.0908 -92.5253 264° West 448 516 43,000  Level Kansas City Center
Mon 04:20:09 PM 40.0769 -92.7064 264° West 449 517 43,000  Level Kansas City Center
Mon 04:21:11 PM 40.0650 -92.8681 265° West 449 517 43,000  Level Kansas City Center
Mon 04:22:13 PM 40.0528 -93.0292 264° West 447 514 43,000  Level Kansas City Center
Mon 04:23:15 PM 40.0400 -93.1900 264° West 448 516 43,000  Level Kansas City Center
Mon 04:24:17 PM 40.0239 -93.3825 264° West 448 516 43,000 48 Level Kansas City Center
Mon 04:25:19 PM 40.0114 -93.5442 264° West 450 518 43,100 629 Climbing Kansas City Center
Mon 04:26:21 PM 39.9981 -93.7028 264° West 446 513 44,300 919 Climbing Kansas City Center
Mon 04:27:23 PM 39.9850 -93.8581 264° West 439 505 45,000 339 Climbing Kansas City Center
Mon 04:28:25 PM 39.9711 -94.0150 263° West 439 505 45,000  Level Kansas City Center
Mon 04:29:28 PM 39.9558 -94.1881 263° West 442 509 45,000  Level Kansas City Center
Mon 04:30:30 PM 39.9400 -94.3672 263° West 447 514 45,000  Level Kansas City Center
Mon 04:31:32 PM 39.9264 -94.5203 263° West 446 513 45,000  Level Kansas City Center
Mon 04:32:34 PM 39.9106 -94.6992 263° West 447 514 45,000  Level Kansas City Center
Mon 04:33:36 PM 39.8950 -94.8525 263° West 447 514 45,000  Level Kansas City Center
Mon 04:34:38 PM 39.8786 -95.0317 263° West 448 516 45,000  Level Kansas City Center
Mon 04:35:40 PM 39.8636 -95.1842 263° West 447 514 45,000  Level Kansas City Center
Mon 04:36:42 PM 39.8464 -95.3622 263° West 447 514 45,000  Level Kansas City Center
Mon 04:37:44 PM 39.8311 -95.5164 263° West 449 517 45,000  Level Kansas City Center
Mon 04:38:46 PM 39.8133 -95.6944 263° West 448 516 45,000  Level Kansas City Center
Mon 04:39:48 PM 39.7969 -95.8489 262° West 450 518 45,000  Level Kansas City Center
Mon 04:40:50 PM 39.7772 -96.0275 262° West 449 517 45,000  Level Kansas City Center
Mon 04:41:52 PM 39.7611 -96.1825 262° West 452 520 45,000  Level Kansas City Center
Mon 04:42:54 PM 39.7422 -96.3628 262° West 452 520 45,000  Level Kansas City Center
Mon 04:43:56 PM 39.7253 -96.5172 262° West 453 521 45,000  Level Kansas City Center
Mon 04:44:58 PM 39.7056 -96.6972 262° West 452 520 45,000  Level Kansas City Center
Mon 04:46:00 PM 39.6886 -96.8503 262° West 450 518 45,000  Level Kansas City Center
Mon 04:47:02 PM 39.6708 -97.0047 262° West 450 518 45,000  Level Kansas City Center
Mon 04:48:04 PM 39.6536 -97.1622 262° West 446 513 45,000  Level Kansas City Center
Mon 04:49:06 PM 39.6325 -97.3464 262° West 447 514 45,000  Level Kansas City Center
Mon 04:50:08 PM 39.6136 -97.5053 261° West 445 512 45,000  Level Kansas City Center
Mon 04:51:10 PM 39.5964 -97.6639 262° West 444 511 45,000  Level Kansas City Center
Mon 04:52:12 PM 39.5761 -97.8217 261° West 443 510 45,000  Level Kansas City Center
Mon 04:52:37 PM 39.5689 -97.8908 262° West 447 514 45,000  Level Kansas City Center
Mon 04:53:39 PM 39.5492 -98.0486 261° West 446 513 45,000  Level Kansas City Center
Mon 04:54:41 PM 39.5303 -98.2053 261° West 442 509 45,000  Level Kansas City Center
Mon 04:55:18 PM 39.5136 -98.3303 260° West 441 507 45,000  Level Kansas City Center
Mon 04:56:20 PM 39.4939 -98.4897 261° West 444 511 45,000  Level Kansas City Center
Mon 04:57:22 PM 39.4742 -98.6400 260° West 437 503 45,000  Level Kansas City Center
Mon 04:57:59 PM 39.4614 -98.7331 260° West 436 502 45,000  Level Denver Center
Mon 04:59:01 PM 39.4422 -98.8881 261° West 436 502 45,000  Level Denver Center
Mon 05:00:03 PM 39.4211 -99.0467 260° West 438 504 45,000  Level Denver Center
Mon 05:01:04 PM 39.3978 -99.2219 260° West 441 507 45,000  Level Denver Center
Mon 05:02:06 PM 39.3781 -99.3706 260° West 439 505 45,000  Level Denver Center
Mon 05:03:08 PM 39.3539 -99.5464 260° West 443 510 45,000  Level Denver Center
Mon 05:04:10 PM 39.3325 -99.6956 260° West 442 509 45,000  Level Denver Center
Mon 05:05:12 PM 39.3097 -99.8675 260° West 437 503 45,000  Level Denver Center
Mon 05:06:14 PM 39.2886 -100.0153 260° West 437 503 45,000  Level Denver Center
Mon 05:07:16 PM 39.2675 -100.1617 259° West 434 499 45,000  Level Denver Center
Mon 05:08:18 PM 39.2456 -100.3375 261° West 440 506 45,000  Level Denver Center
Mon 05:09:20 PM 39.2286 -100.4867 262° West 440 506 45,000  Level Denver Center
Mon 05:10:22 PM 39.2075 -100.6592 262° West 436 502 45,000  Level Denver Center
Mon 05:11:00 PM 39.2016 -100.7373 262° West  Level FlightAware Approximate
Mon 05:11:24 PM 39.1903 -100.8092 262° West 439 505 45,000  Level Denver Center
Mon 05:12:26 PM 39.1694 -100.9806 261° West 435 501 45,000  Level Denver Center
Mon 05:13:28 PM 39.1519 -101.1300 261° West 439 505 45,000  Level Denver Center
Mon 05:14:30 PM 39.1306 -101.3031 261° West 439 505 45,000  Level Denver Center
Mon 05:15:33 PM 39.1122 -101.4478 261° West 432 497 45,000  Level Denver Center
Mon 05:16:35 PM 39.0903 -101.6206 261° West 434 499 45,000  Level Denver Center
Mon 05:17:37 PM 39.0717 -101.7697 261° West 435 501 45,000  Level Denver Center
Mon 05:18:39 PM 39.0525 -101.9175 261° West 437 503 45,000  Level Denver Center
Mon 05:19:41 PM 39.0300 -102.0894 260° West 438 504 45,000  Level Denver Center
Mon 05:20:43 PM 39.0103 -102.2347 260° West 434 499 45,000  Level Denver Center
Mon 05:21:45 PM 38.9864 -102.4069 260° West 439 505 45,000  Level Denver Center
Mon 05:22:47 PM 38.9681 -102.5525 261° West 436 502 45,000  Level Denver Center
Mon 05:23:49 PM 38.9447 -102.7208 260° West 431 496 45,000  Level Denver Center
Mon 05:24:51 PM 38.9247 -102.8611 260° West 429 494 45,000  Level Denver Center
Mon 05:25:53 PM 38.9036 -103.0111 260° West 429 494 45,000  Level Denver Center
Mon 05:26:55 PM 38.8783 -103.1928 260° West 431 496 45,000  Level Denver Center
Mon 05:27:57 PM 38.8578 -103.3431 260° West 430 495 45,000  Level Denver Center
Mon 05:29:11 PM 38.8367 -103.4889 260° West 431 496 45,000  Level Denver Center
Mon 05:30:14 PM 38.8075 -103.6822 259° West 433 498 45,000  Level Denver Center
Mon 05:31:16 PM 38.7800 -103.8492 258° West 431 496 45,000  Level Denver Center
Mon 05:32:18 PM 38.7550 -103.9944 258° West 435 501 45,000  Level Denver Center
Mon 05:33:20 PM 38.7272 -104.1608 258° West 435 501 45,000  Level Denver Center
Mon 05:34:22 PM 38.7008 -104.3119 257° West 435 501 45,000  Level Denver Center
Mon 05:35:24 PM 38.6756 -104.4636 258° West 436 502 45,000  Level Denver Center
Mon 05:36:38 PM 38.6478 -104.6169 257° West 439 505 45,000  Level Denver Center
Mon 05:37:40 PM 38.6164 -104.7975 258° West 434 499 45,000  Level Denver Center
Mon 05:38:43 PM 38.5911 -104.9439 258° West 425 489 45,000  Level Denver Center
Mon 05:39:45 PM 38.5594 -105.1169 257° West 417 480 45,000  Level Denver Center
Mon 05:40:47 PM 38.5339 -105.2617 257° West 419 482 45,000  Level Denver Center
Mon 05:41:49 PM 38.5078 -105.4069 257° West 418 481 45,000 387 Level Denver Center
Mon 05:42:51 PM 38.4808 -105.5525 257° West 419 482 45,800 677 Climbing Denver Center
Mon 05:43:53 PM 38.4547 -105.6933 257° West 413 475 46,400 532 Climbing Denver Center
Mon 05:44:55 PM 38.4264 -105.8461 257° West 415 478 46,900 290 Climbing Denver Center
Mon 05:45:57 PM 38.3972 -106.0047 257° West 413 475 47,000 48 Climbing Denver Center
Mon 05:46:59 PM 38.3708 -106.1461 257° West 427 491 47,000  Level Denver Center
Mon 05:48:01 PM 38.3419 -106.2972 256° West 426 490 47,000  Level Denver Center
Mon 05:49:03 PM 38.3131 -106.4444 256° West 427 491 47,000  Level Denver Center
Mon 05:50:05 PM 38.2825 -106.6028 256° West 427 491 47,000  Level Denver Center
Mon 05:51:07 PM 38.2556 -106.7439 256° West 428 493 47,000  Level Denver Center
Mon 05:52:09 PM 38.2269 -106.8878 256° West 429 494 47,000  Level Denver Center
Mon 05:53:11 PM 38.1922 -107.0644 256° West 429 494 47,000  Level Denver Center
Mon 05:54:13 PM 38.1631 -107.2131 256° West 429 494 47,000  Level Denver Center
Mon 05:55:15 PM 38.1358 -107.3528 256° West 426 490 47,000  Level Denver Center
Mon 05:56:30 PM 38.0972 -107.5406 255° West 428 493 47,000  Level Denver Center
Mon 05:57:32 PM 38.0658 -107.6950 256° West 426 490 47,000  Level Denver Center
Mon 05:58:34 PM 38.0381 -107.8356 256° West 427 491 47,000  Level Denver Center
Mon 05:59:48 PM 38.0042 -107.9986 255° West 429 494 47,000  Level Denver Center
Mon 06:00:50 PM 37.9700 -108.1628 255° West 433 498 47,000  Level Denver Center
Mon 06:01:52 PM 37.9369 -108.3269 256° West 433 498 47,000  Level Denver Center
Mon 06:02:54 PM 37.9067 -108.4669 255° West 431 496 47,000  Level Denver Center
Mon 06:03:56 PM 37.8733 -108.6289 255° West 428 493 47,000  Level Denver Center
Mon 06:04:58 PM 37.8439 -108.7675 255° West 427 491 47,000  Level Denver Center
Mon 06:06:00 PM 37.8083 -108.9286 254° West 426 490 47,000  Level Denver Center
Mon 06:07:02 PM 37.7758 -109.0647 253° West 424 488 47,000  Level Denver Center
Mon 06:08:04 PM 37.7350 -109.2264 252° West 432 497 47,000  Level Denver Center
Mon 06:09:06 PM 37.7008 -109.3644 253° West 432 497 47,000  Level Denver Center
Mon 06:10:08 PM 37.6608 -109.5242 252° West 430 495 47,000  Level Denver Center
Mon 06:11:10 PM 37.6258 -109.6622 252° West 432 497 47,000  Level Denver Center
Mon 06:12:23 PM 37.5856 -109.8208 252° West 427 491 47,000  Level Denver Center
Mon 06:13:26 PM 37.5456 -109.9819 253° West 430 495 47,000  Level Denver Center
Mon 06:14:28 PM 37.5042 -110.1422 252° West 431 496 47,000  Level Denver Center
Mon 06:15:30 PM 37.4656 -110.2894 252° West 431 496 47,000  Level Denver Center
Mon 06:16:32 PM 37.4283 -110.4331 252° West 432 497 47,000  Level Denver Center
Mon 06:17:45 PM 37.3914 -110.5761 252° West 431 496 47,000  Level Denver Center
Mon 06:18:48 PM 37.3464 -110.7472 252° West 430 495 47,000  Level Denver Center
Mon 06:19:50 PM 37.3072 -110.8903 251° West 432 497 47,000  Level Denver Center
Mon 06:20:52 PM 37.2619 -111.0608 252° West 429 494 47,000  Level Denver Center
Mon 06:22:28 PM 37.1989 -111.2897 251° West 432 497 47,000  Level Los Angeles Center
Mon 06:22:56 PM 37.1864 -111.3467 255° West 432 497 47,000  Level Denver Center
Mon 06:23:57 PM 37.1478 -111.4892 251° West 432 497 47,000  Level Denver Center
Mon 06:24:59 PM 37.1089 -111.6306 251° West 429 494 47,000  Level Denver Center
Mon 06:25:34 PM 37.0836 -111.7164 250° West 432 497 47,000  Level Los Angeles Center
Mon 06:26:36 PM 37.0322 -111.8542 245° Southwest 438 504 47,000  Level Los Angeles Center
Mon 06:27:38 PM 36.9719 -111.9858 240° Southwest 438 504 47,000  Level Los Angeles Center
Mon 06:28:40 PM 36.9000 -112.1433 240° Southwest 436 502 47,000  Level Los Angeles Center
Mon 06:29:42 PM 36.8389 -112.2772 240° Southwest 441 507 47,000  Level Los Angeles Center
Mon 06:30:45 PM 36.7789 -112.4061 240° Southwest 432 497 47,000  Level Los Angeles Center
Mon 06:31:47 PM 36.7192 -112.5369 240° Southwest 434 499 47,000  Level Los Angeles Center
Mon 06:32:49 PM 36.6594 -112.6669 240° Southwest 432 497 47,000  Level Los Angeles Center
Mon 06:33:51 PM 36.5986 -112.7986 240° Southwest 436 502 47,000  Level Los Angeles Center
Mon 06:34:53 PM 36.5372 -112.9292 240° Southwest 436 502 47,000  Level Los Angeles Center
Mon 06:35:55 PM 36.4636 -113.0864 240° Southwest 438 504 47,000  Level Los Angeles Center
Mon 06:36:57 PM 36.4017 -113.2169 240° Southwest 439 505 47,000  Level Los Angeles Center
Mon 06:37:59 PM 36.3403 -113.3497 240° Southwest 439 505 47,000  Level Los Angeles Center
Mon 06:39:01 PM 36.2775 -113.4800 239° Southwest 440 506 47,000  Level Los Angeles Center
Mon 06:40:03 PM 36.2153 -113.6108 240° Southwest 441 507 47,000  Level Los Angeles Center
Mon 06:41:06 PM 36.1519 -113.7417 239° Southwest 441 507 47,000  Level Los Angeles Center
Mon 06:42:08 PM 36.0900 -113.8703 239° Southwest 438 504 47,000  Level Los Angeles Center
Mon 06:43:10 PM 36.0164 -114.0267 240° Southwest 438 504 47,000  Level Los Angeles Center
Mon 06:44:12 PM 35.9528 -114.1553 239° Southwest 437 503 47,000  Level Los Angeles Center
Mon 06:45:14 PM 35.8917 -114.2867 240° Southwest 441 507 47,000  Level Los Angeles Center
Mon 06:46:16 PM 35.8286 -114.4139 239° Southwest 436 502 47,000  Level Los Angeles Center
Mon 06:47:18 PM 35.7664 -114.5428 239° Southwest 437 503 47,000  Level Los Angeles Center
Mon 06:48:20 PM 35.7028 -114.6706 239° Southwest 437 503 47,000  Level Los Angeles Center
Mon 06:49:22 PM 35.6258 -114.8253 239° Southwest 440 506 47,000  Level Los Angeles Center
Mon 06:50:24 PM 35.5764 -114.9272 239° Southwest 435 501 47,000  Level Los Angeles Center
Mon 06:51:27 PM 35.5006 -115.0797 239° Southwest 434 499 47,000  Level Los Angeles Center
Mon 06:52:29 PM 35.4369 -115.2075 239° Southwest 437 503 47,000  Level Los Angeles Center
Mon 06:53:43 PM 35.3736 -115.3319 238° Southwest 431 496 47,000  Level Los Angeles Center
Mon 06:54:45 PM 35.2978 -115.4828 238° Southwest 431 496 47,000  Level Los Angeles Center
Mon 06:55:48 PM 35.2392 -115.6197 242° Southwest 438 504 47,000  Level Los Angeles Center
Mon 06:56:49 PM 35.2117 -115.7328 253° West 437 503 47,000  Level Los Angeles Center
Mon 06:57:51 PM 35.1683 -115.9044 253° West 440 506 47,000  Level Los Angeles Center
Mon 06:58:53 PM 35.1244 -116.0767 253° West 444 511 47,000  Level Los Angeles Center
Mon 06:59:55 PM 35.0867 -116.2186 252° West 443 510 47,000  Level Los Angeles Center
Mon 07:00:57 PM 35.0497 -116.3594 252° West 438 504 47,000 -97 Level Los Angeles Center
Mon 07:01:59 PM 35.0122 -116.5028 252° West 441 507 46,800 -774 Descending Los Angeles Center
Mon 07:03:01 PM 34.9736 -116.6489 252° West 449 517 45,400 -1,355 Descending Los Angeles Center
Mon 07:04:03 PM 34.9356 -116.7908 252° West 446 513 44,000 -1,512 Descending Los Angeles Center
Mon 07:05:04 PM 34.8892 -116.9597 252° West 439 505 42,300 -1,500 Descending Los Angeles Center
Mon 07:06:07 PM 34.8514 -117.1008 252° West 438 504 40,900 -1,161 Descending Los Angeles Center
Mon 07:07:08 PM 34.8131 -117.2425 252° West 439 505 39,900 -1,317 Descending Los Angeles Center
Mon 07:08:10 PM 34.7736 -117.3875 252° West 447 514 38,200 -1,742 Descending Los Angeles Center
Mon 07:09:12 PM 34.7328 -117.5361 252° West 458 527 36,300 -1,645 Descending Los Angeles Center
Mon 07:10:14 PM 34.6992 -117.6586 252° West 470 541 34,800 -1,984 Descending Los Angeles Center
Mon 07:11:16 PM 34.6489 -117.8425 252° West 477 549 32,200 -2,274 Descending Los Angeles Center
Mon 07:12:18 PM 34.6056 -117.9989 251° West 487 560 30,100 -1,065 Descending Los Angeles Center
Mon 07:13:20 PM 34.5586 -118.1692 252° West 489 563 30,000 -221 Descending Los Angeles Center
Mon 07:14:34 PM 34.5144 -118.3250 251° West 493 567 29,600 -971 Descending Los Angeles Center
Mon 07:15:36 PM 34.4714 -118.4789 251° West 486 559 27,800 -2,081 Descending Los Angeles Center
Mon 07:16:38 PM 34.4119 -118.6878 251° West 473 544 25,300 -1,839 Descending Los Angeles Center
Mon 07:17:40 PM 34.3703 -118.8319 251° West 461 531 24,000 -1,235 Descending Los Angeles Center
Mon 07:18:54 PM 34.3483 -118.9792 260° West 448 516 22,500 -2,647 Descending Los Angeles Center
Mon 07:19:56 PM 34.3367 -119.1444 265° West 417 480 18,000 -4,484 Descending Los Angeles Center
Mon 07:20:25 PM 34.3303 -119.2331 265° West 413 475 15,700 -4,100 Descending Los Angeles Center
Mon 07:20:56 PM 34.3256 -119.2972 265° West 405 466 13,900 -2,968 Descending Los Angeles Center
Mon 07:22:00 PM 34.3131 -119.4292 263° West 376 433 11,000 -2,182 Descending Los Angeles Center
Mon 07:22:57 PM 34.3083 -119.5272 267° West 308 354 9,500 -2,034 Descending Los Angeles Center
Mon 07:23:58 PM 34.3000 -119.6158 264° West 279 321 7,000 -2,035 Descending Los Angeles Center
Mon 07:24:52 PM 34.2964 -119.7056 267° West 275 316 5,600 -1,488 Descending Los Angeles Center
Mon 07:25:59 PM 34.3378 -119.7753 306° West 260 299 4,000 -1,489 Descending Los Angeles Center
Mon 07:27:05 PM 34.3994 -119.7606 11° North 206 237 2,300 -1,438 Descending Los Angeles Center
Mon 07:28:00 PM 34.4272 -119.7881 321° Northwest 151 174 1,100 -734 Descending Los Angeles Center
Mon 07:29:24 PM 34.4322 -119.8350 277° West 177 204 600 -357 Descending Los Angeles Center
Mon 07:31:00 PM 34.4262 -119.8415 292° West  Level Estimated

Login

Don't have an account? Register now (free) for customized features, flight alerts, and more!